createdAt,value
2023-05-18T00:00:34.320Z,37.03
2023-05-18T00:01:34.354Z,37.04
2023-05-18T00:02:34.481Z,37.02
2023-05-18T00:03:34.571Z,37.05
2023-05-18T00:04:34.434Z,37.04
2023-05-18T00:05:34.764Z,37.04
2023-05-18T00:06:34.452Z,37.04
2023-05-18T00:07:34.475Z,37.04
2023-05-18T00:08:34.486Z,37.04
2023-05-18T00:09:34.539Z,37.01
2023-05-18T00:10:34.558Z,37.01
2023-05-18T00:11:34.533Z,37.03
2023-05-18T00:12:34.537Z,37.03
2023-05-18T00:13:34.553Z,37.00
2023-05-18T00:14:34.536Z,37.01
2023-05-18T00:15:34.571Z,37.00
2023-05-18T00:16:34.671Z,37.01
2023-05-18T00:17:34.627Z,36.97
2023-05-18T00:18:34.603Z,37.00
2023-05-18T00:19:34.593Z,36.99
2023-05-18T00:20:34.605Z,36.97
2023-05-18T00:21:34.637Z,36.98
2023-05-18T00:22:34.626Z,36.98
2023-05-18T00:23:34.672Z,37.00
2023-05-18T00:24:36.945Z,36.99
2023-05-18T00:25:34.715Z,36.98
2023-05-18T00:26:34.677Z,36.99
2023-05-18T00:27:34.682Z,36.97
2023-05-18T00:28:34.688Z,37.00
2023-05-18T00:29:34.727Z,36.97
2023-05-18T00:30:34.687Z,36.96
2023-05-18T00:31:34.776Z,36.97
2023-05-18T00:32:34.734Z,36.97
2023-05-18T00:33:34.719Z,36.96
2023-05-18T00:34:34.728Z,36.97
2023-05-18T00:35:34.756Z,36.96
2023-05-18T00:36:34.750Z,36.96
2023-05-18T00:37:34.755Z,36.96
2023-05-18T00:38:34.750Z,36.93
2023-05-18T00:39:34.766Z,36.95
2023-05-18T00:40:34.736Z,36.93
2023-05-18T00:41:34.755Z,36.93
2023-05-18T00:42:34.791Z,36.93
2023-05-18T00:43:34.743Z,36.92
2023-05-18T00:44:34.765Z,36.95
2023-05-18T00:45:34.896Z,36.92
2023-05-18T00:46:34.867Z,36.92
2023-05-18T00:47:34.785Z,36.93
2023-05-18T00:48:34.745Z,36.92
2023-05-18T00:49:34.757Z,36.93
2023-05-18T00:50:34.804Z,36.92
2023-05-18T00:51:34.781Z,36.93
2023-05-18T00:52:34.792Z,36.94
2023-05-18T00:53:34.763Z,36.93
2023-05-18T00:54:34.803Z,36.92
2023-05-18T00:55:34.802Z,36.90
2023-05-18T00:56:34.784Z,36.92
2023-05-18T00:57:34.799Z,36.90
2023-05-18T00:58:34.789Z,36.92
2023-05-18T00:59:34.995Z,36.91
2023-05-18T01:00:34.804Z,36.89
2023-05-18T01:01:35.229Z,36.87
2023-05-18T01:02:34.872Z,36.85
2023-05-18T01:03:34.835Z,36.89
2023-05-18T01:04:34.827Z,36.90
2023-05-18T01:05:34.802Z,36.90
2023-05-18T01:06:34.805Z,36.88
2023-05-18T01:07:34.811Z,36.88
2023-05-18T01:08:34.811Z,36.89
2023-05-18T01:09:34.828Z,36.88
2023-05-18T01:10:34.801Z,36.84
2023-05-18T01:11:34.917Z,36.88
2023-05-18T01:12:34.815Z,36.86
2023-05-18T01:13:34.813Z,36.84
2023-05-18T01:14:34.811Z,36.87
2023-05-18T01:15:34.838Z,36.88
2023-05-18T01:16:34.847Z,36.86
2023-05-18T01:17:34.933Z,36.85
2023-05-18T01:18:34.912Z,36.87
2023-05-18T01:19:34.840Z,36.86
2023-05-18T01:20:34.852Z,36.85
2023-05-18T01:21:34.860Z,36.84
2023-05-18T01:22:34.907Z,36.85
2023-05-18T01:23:34.914Z,36.86
2023-05-18T01:24:34.967Z,36.84
2023-05-18T01:25:35.481Z,36.85
2023-05-18T01:26:35.021Z,36.85
2023-05-18T01:27:35.035Z,36.85
2023-05-18T01:28:35.068Z,36.83
2023-05-18T01:29:35.109Z,36.85
2023-05-18T01:30:35.194Z,36.85
2023-05-18T01:31:35.245Z,36.84
2023-05-18T01:32:35.208Z,36.85
2023-05-18T01:33:35.205Z,36.85
2023-05-18T01:34:35.224Z,36.85
2023-05-18T01:35:35.285Z,36.83
2023-05-18T01:36:35.288Z,36.82
2023-05-18T01:37:35.294Z,36.82
2023-05-18T01:38:35.317Z,36.82
2023-05-18T01:39:35.310Z,36.82
2023-05-18T01:40:35.299Z,36.82
2023-05-18T01:41:35.326Z,36.84
2023-05-18T01:42:35.336Z,36.82
2023-05-18T01:43:35.308Z,36.82
2023-05-18T01:44:35.357Z,36.82
2023-05-18T01:45:35.326Z,36.82
2023-05-18T01:46:35.364Z,36.83
2023-05-18T01:47:35.344Z,36.82
2023-05-18T01:48:35.325Z,36.81
2023-05-18T01:49:35.317Z,36.83
2023-05-18T01:50:35.322Z,36.79
2023-05-18T01:51:35.327Z,36.80
2023-05-18T01:52:35.351Z,36.81
2023-05-18T01:53:35.377Z,36.82
2023-05-18T01:54:35.352Z,36.80
2023-05-18T01:55:35.366Z,36.79
2023-05-18T01:56:35.374Z,36.80
2023-05-18T01:57:35.402Z,36.81
2023-05-18T01:58:35.398Z,36.81
2023-05-18T01:59:35.395Z,36.78
2023-05-18T02:00:35.396Z,36.80
2023-05-18T02:01:35.418Z,36.79
2023-05-18T02:02:35.447Z,36.80
2023-05-18T02:03:35.482Z,36.81
2023-05-18T02:04:35.426Z,36.80
2023-05-18T02:05:35.428Z,36.78
2023-05-18T02:06:35.460Z,36.77
2023-05-18T02:07:35.464Z,36.80
2023-05-18T02:08:35.475Z,36.78
2023-05-18T02:09:35.487Z,36.78
2023-05-18T02:10:35.484Z,36.78
2023-05-18T02:11:35.500Z,36.76
2023-05-18T02:12:35.508Z,36.77
2023-05-18T02:13:35.512Z,36.76
2023-05-18T02:14:35.579Z,36.76
2023-05-18T02:15:35.518Z,36.80
2023-05-18T02:16:35.552Z,36.77
2023-05-18T02:17:35.536Z,36.78
2023-05-18T02:18:35.548Z,36.78
2023-05-18T02:19:35.531Z,36.77
2023-05-18T02:20:35.532Z,36.78
2023-05-18T02:21:35.538Z,36.78
2023-05-18T02:22:35.513Z,36.73
2023-05-18T02:23:35.509Z,36.77
2023-05-18T02:24:35.512Z,36.74
2023-05-18T02:25:35.523Z,36.75
2023-05-18T02:26:35.509Z,36.73
2023-05-18T02:27:35.498Z,36.72
2023-05-18T02:28:35.517Z,36.73
2023-05-18T02:29:35.508Z,36.73
2023-05-18T02:30:35.505Z,36.72
2023-05-18T02:31:35.531Z,36.73
2023-05-18T02:32:35.543Z,36.74
2023-05-18T02:33:35.515Z,36.75
2023-05-18T02:34:35.506Z,36.75
2023-05-18T02:35:35.512Z,36.75
2023-05-18T02:36:35.616Z,36.74
2023-05-18T02:37:35.516Z,36.75
2023-05-18T02:38:35.498Z,36.74
2023-05-18T02:39:35.533Z,36.73
2023-05-18T02:40:35.516Z,36.72
2023-05-18T02:41:35.527Z,36.74
2023-05-18T02:42:35.534Z,36.72
2023-05-18T02:43:35.525Z,36.73
2023-05-18T02:44:35.590Z,36.74
2023-05-18T02:45:35.610Z,36.76
2023-05-18T02:46:35.589Z,36.75
2023-05-18T02:47:35.636Z,36.74
2023-05-18T02:48:35.609Z,36.75
2023-05-18T02:49:35.632Z,36.71
2023-05-18T02:50:35.651Z,36.71
2023-05-18T02:51:35.636Z,36.70
2023-05-18T02:52:35.634Z,36.70
2023-05-18T02:53:35.645Z,36.72
2023-05-18T02:54:35.672Z,36.71
2023-05-18T02:55:35.695Z,36.69
2023-05-18T02:56:35.706Z,36.70
2023-05-18T02:57:35.686Z,36.71
2023-05-18T02:58:35.689Z,36.69
2023-05-18T02:59:35.663Z,36.69
2023-05-18T03:00:35.680Z,36.70
2023-05-18T03:01:35.732Z,36.70
2023-05-18T03:02:35.746Z,36.69
2023-05-18T03:03:35.698Z,36.69
2023-05-18T03:04:35.690Z,36.69
2023-05-18T03:05:35.674Z,36.68
2023-05-18T03:06:35.735Z,36.67
2023-05-18T03:07:35.694Z,36.70
2023-05-18T03:08:35.668Z,36.70
2023-05-18T03:09:35.727Z,36.70
2023-05-18T03:10:35.710Z,36.72
2023-05-18T03:11:35.723Z,36.70
2023-05-18T03:12:35.714Z,36.69
2023-05-18T03:13:35.728Z,36.69
2023-05-18T03:14:35.704Z,36.68
2023-05-18T03:15:35.705Z,36.70
2023-05-18T03:16:35.799Z,36.69
2023-05-18T03:17:35.732Z,36.69
2023-05-18T03:18:35.740Z,36.69
2023-05-18T03:19:35.729Z,36.72
2023-05-18T03:20:35.758Z,36.71
2023-05-18T03:21:35.758Z,36.71
2023-05-18T03:22:35.733Z,36.69
2023-05-18T03:23:35.751Z,36.70
2023-05-18T03:24:35.770Z,36.70
2023-05-18T03:25:35.758Z,36.69
2023-05-18T03:26:35.800Z,36.69
2023-05-18T03:27:35.778Z,36.70
2023-05-18T03:28:35.796Z,36.71
2023-05-18T03:29:35.819Z,36.71
2023-05-18T03:30:35.803Z,36.69
2023-05-18T03:31:35.860Z,36.73
2023-05-18T03:32:35.835Z,36.71
2023-05-18T03:33:35.834Z,36.72
2023-05-18T03:34:35.850Z,36.68
2023-05-18T03:35:35.875Z,36.67
2023-05-18T03:36:35.895Z,36.69
2023-05-18T03:37:35.901Z,36.69
2023-05-18T03:38:35.865Z,36.70
2023-05-18T03:39:35.881Z,36.69
2023-05-18T03:40:35.869Z,36.65
2023-05-18T03:41:35.874Z,36.67
2023-05-18T03:42:35.881Z,36.67
2023-05-18T03:43:35.883Z,36.64
2023-05-18T03:44:35.876Z,36.66
2023-05-18T03:45:35.890Z,36.65
2023-05-18T03:46:35.921Z,36.65
2023-05-18T03:47:35.901Z,36.65
2023-05-18T03:48:35.870Z,36.66
2023-05-18T03:49:36.535Z,36.65
2023-05-18T03:50:35.897Z,36.63
2023-05-18T03:51:35.903Z,36.63
2023-05-18T03:52:35.925Z,36.64
2023-05-18T03:53:35.935Z,36.65
2023-05-18T03:54:35.985Z,36.65
2023-05-18T03:55:35.936Z,36.63
2023-05-18T03:56:35.974Z,36.65
2023-05-18T03:57:35.943Z,36.64
2023-05-18T03:58:35.943Z,36.64
2023-05-18T03:59:35.951Z,36.63
2023-05-18T04:00:35.974Z,36.62
2023-05-18T04:01:35.996Z,36.63
2023-05-18T04:02:36.074Z,36.63
2023-05-18T04:03:36.004Z,36.62
2023-05-18T04:04:35.952Z,36.63
2023-05-18T04:05:35.962Z,36.63
2023-05-18T04:06:35.949Z,36.65
2023-05-18T04:07:35.987Z,36.62
2023-05-18T04:08:35.972Z,36.62
2023-05-18T04:09:35.980Z,36.60
2023-05-18T04:10:35.975Z,36.63
2023-05-18T04:11:35.987Z,36.61
2023-05-18T04:12:35.980Z,36.63
2023-05-18T04:13:35.966Z,36.61
2023-05-18T04:14:35.994Z,36.63
2023-05-18T04:15:35.986Z,36.61
2023-05-18T04:16:36.048Z,36.59
2023-05-18T04:17:36.057Z,36.59
2023-05-18T04:18:35.992Z,36.59
2023-05-18T04:19:36.084Z,36.61
2023-05-18T04:20:35.962Z,36.60
2023-05-18T04:21:36.010Z,36.61
2023-05-18T04:22:36.000Z,36.61
2023-05-18T04:23:35.996Z,36.62
2023-05-18T04:24:36.014Z,36.59
2023-05-18T04:25:36.014Z,36.60
2023-05-18T04:26:36.038Z,36.59
2023-05-18T04:27:36.050Z,36.59
2023-05-18T04:28:36.053Z,36.60
2023-05-18T04:29:36.062Z,36.60
2023-05-18T04:30:36.085Z,36.59
2023-05-18T04:31:36.120Z,36.61
2023-05-18T04:32:36.155Z,36.60
2023-05-18T04:33:36.101Z,36.60
2023-05-18T04:34:36.112Z,36.62
2023-05-18T04:35:36.125Z,36.62
2023-05-18T04:36:36.095Z,36.60
2023-05-18T04:37:36.107Z,36.61
2023-05-18T04:38:36.121Z,36.60
2023-05-18T04:39:36.280Z,36.57
2023-05-18T04:40:36.133Z,36.57
2023-05-18T04:41:36.141Z,36.57
2023-05-18T04:42:36.157Z,36.59
2023-05-18T04:43:36.153Z,36.58
2023-05-18T04:44:36.165Z,36.59
2023-05-18T04:45:36.254Z,36.57
2023-05-18T04:46:36.176Z,36.58
2023-05-18T04:47:36.188Z,36.59
2023-05-18T04:48:36.179Z,36.58
2023-05-18T04:49:36.181Z,36.57
2023-05-18T04:50:36.178Z,36.60
2023-05-18T04:51:36.188Z,36.58
2023-05-18T04:52:36.189Z,36.58
2023-05-18T04:53:36.201Z,36.60
2023-05-18T04:54:36.192Z,36.56
2023-05-18T04:55:36.191Z,36.57
2023-05-18T04:56:36.221Z,36.56
2023-05-18T04:57:36.215Z,36.57
2023-05-18T04:58:36.249Z,36.57
2023-05-18T04:59:36.256Z,36.57
2023-05-18T05:00:36.262Z,36.56
2023-05-18T05:01:36.311Z,36.61
2023-05-18T05:02:36.397Z,36.55
2023-05-18T05:03:36.356Z,36.57
2023-05-18T05:04:36.334Z,36.54
2023-05-18T05:05:36.287Z,36.54
2023-05-18T05:06:36.273Z,36.55
2023-05-18T05:07:36.329Z,36.53
2023-05-18T05:08:36.320Z,36.55
2023-05-18T05:09:36.319Z,36.55
2023-05-18T05:10:36.328Z,36.55
2023-05-18T05:11:36.338Z,36.55
2023-05-18T05:12:36.338Z,36.55
2023-05-18T05:13:36.390Z,36.54
2023-05-18T05:14:36.546Z,36.54
2023-05-18T05:15:36.412Z,36.53
2023-05-18T05:16:36.385Z,36.54
2023-05-18T05:17:36.439Z,36.54
2023-05-18T05:18:36.430Z,36.56
2023-05-18T05:19:36.454Z,36.53
2023-05-18T05:20:36.450Z,36.54
2023-05-18T05:21:36.446Z,36.53
2023-05-18T05:22:36.662Z,36.56
2023-05-18T05:23:36.507Z,36.52
2023-05-18T05:24:36.499Z,36.53
2023-05-18T05:25:36.529Z,36.52
2023-05-18T05:26:36.538Z,36.55
2023-05-18T05:27:36.530Z,36.53
2023-05-18T05:28:36.557Z,36.55
2023-05-18T05:29:36.561Z,36.54
2023-05-18T05:30:36.598Z,36.55
2023-05-18T05:31:36.620Z,36.54
2023-05-18T05:32:36.824Z,36.55
2023-05-18T05:33:36.610Z,36.54
2023-05-18T05:34:36.613Z,36.56
2023-05-18T05:35:36.925Z,36.52
2023-05-18T05:36:36.658Z,36.53
2023-05-18T05:37:36.657Z,36.55
2023-05-18T05:38:36.652Z,36.54
2023-05-18T05:39:36.654Z,36.54
2023-05-18T05:40:36.660Z,36.55
2023-05-18T05:41:36.668Z,36.56
2023-05-18T05:42:36.679Z,36.53
2023-05-18T05:43:36.698Z,36.52
2023-05-18T05:44:36.693Z,36.54
2023-05-18T05:45:36.720Z,36.55
2023-05-18T05:46:36.768Z,36.53
2023-05-18T05:47:36.774Z,36.53
2023-05-18T05:48:36.780Z,36.53
2023-05-18T05:49:36.809Z,36.54
2023-05-18T05:50:36.774Z,36.53
2023-05-18T05:51:36.770Z,36.52
2023-05-18T05:52:36.782Z,36.54
2023-05-18T05:53:36.804Z,36.51
2023-05-18T05:54:36.801Z,36.49
2023-05-18T05:55:36.826Z,36.52
2023-05-18T05:56:36.868Z,36.50
2023-05-18T05:57:36.833Z,36.50
2023-05-18T05:58:36.838Z,36.51
2023-05-18T05:59:36.865Z,36.52
2023-05-18T06:00:36.873Z,36.52
2023-05-18T06:01:36.896Z,36.53
2023-05-18T06:02:37.038Z,36.54
2023-05-18T06:03:36.965Z,36.51
2023-05-18T06:04:36.988Z,36.53
2023-05-18T06:05:36.885Z,36.50
2023-05-18T06:06:36.878Z,36.53
2023-05-18T06:07:36.910Z,36.51
2023-05-18T06:08:36.892Z,36.55
2023-05-18T06:09:36.896Z,36.51
2023-05-18T06:10:36.923Z,36.49
2023-05-18T06:11:36.916Z,36.52
2023-05-18T06:12:36.919Z,36.52
2023-05-18T06:13:36.937Z,36.52
2023-05-18T06:14:36.971Z,36.52
2023-05-18T06:15:36.963Z,36.52
2023-05-18T06:16:37.019Z,36.50
2023-05-18T06:17:37.010Z,36.53
2023-05-18T06:18:37.143Z,36.50
2023-05-18T06:19:37.044Z,36.52
2023-05-18T06:20:37.039Z,36.50
2023-05-18T06:21:37.044Z,36.51
2023-05-18T06:22:37.053Z,36.51
2023-05-18T06:23:38.319Z,36.48
2023-05-18T06:24:37.130Z,36.51
2023-05-18T06:25:37.132Z,36.51
2023-05-18T06:26:37.151Z,36.49
2023-05-18T06:27:37.172Z,36.49
2023-05-18T06:28:37.146Z,36.51
2023-05-18T06:29:37.178Z,36.52
2023-05-18T06:30:37.174Z,36.51
2023-05-18T06:31:37.190Z,36.49
2023-05-18T06:32:37.220Z,36.51
2023-05-18T06:33:37.231Z,36.48
2023-05-18T06:34:37.232Z,36.46
2023-05-18T06:35:37.260Z,36.51
2023-05-18T06:36:37.264Z,36.48
2023-05-18T06:37:37.261Z,36.51
2023-05-18T06:38:37.262Z,36.51
2023-05-18T06:39:37.267Z,36.49
2023-05-18T06:40:37.288Z,36.51
2023-05-18T06:41:37.272Z,36.52
2023-05-18T06:42:37.270Z,36.51
2023-05-18T06:43:37.306Z,36.52
2023-05-18T06:44:37.313Z,36.52
2023-05-18T06:45:37.734Z,36.51
2023-05-18T06:46:37.357Z,36.51
2023-05-18T06:47:37.308Z,36.51
2023-05-18T06:48:37.322Z,36.51
2023-05-18T06:49:37.317Z,36.50
2023-05-18T06:50:37.317Z,36.52
2023-05-18T06:51:37.337Z,36.50
2023-05-18T06:52:37.352Z,36.50
2023-05-18T06:53:37.319Z,36.50
2023-05-18T06:54:37.328Z,36.50
2023-05-18T06:55:37.364Z,36.51
2023-05-18T06:56:37.326Z,36.51
2023-05-18T06:57:37.368Z,36.51
2023-05-18T06:58:37.377Z,36.50
2023-05-18T06:59:37.335Z,36.51
2023-05-18T07:00:37.348Z,36.54
2023-05-18T07:01:37.404Z,36.54
2023-05-18T07:02:37.347Z,36.52
2023-05-18T07:03:37.371Z,36.51
2023-05-18T07:04:37.336Z,36.50
2023-05-18T07:05:39.368Z,36.52
2023-05-18T07:06:37.350Z,36.50
2023-05-18T07:07:37.375Z,36.49
2023-05-18T07:08:37.393Z,36.48
2023-05-18T07:09:37.381Z,36.50
2023-05-18T07:10:37.435Z,36.48
2023-05-18T07:11:37.388Z,36.51
2023-05-18T07:12:37.414Z,36.50
2023-05-18T07:13:37.389Z,36.47
2023-05-18T07:14:37.395Z,36.49
2023-05-18T07:15:37.393Z,36.53
2023-05-18T07:16:37.426Z,36.50
2023-05-18T07:17:37.398Z,36.54
2023-05-18T07:18:37.397Z,36.53
2023-05-18T07:19:37.399Z,36.51
2023-05-18T07:20:37.400Z,36.52
2023-05-18T07:21:37.424Z,36.54
2023-05-18T07:22:37.400Z,36.52
2023-05-18T07:23:37.404Z,36.51
2023-05-18T07:24:37.401Z,36.53
2023-05-18T07:25:37.420Z,36.50
2023-05-18T07:26:37.424Z,36.52
2023-05-18T07:27:37.402Z,36.49
2023-05-18T07:28:37.401Z,36.54
2023-05-18T07:29:37.407Z,36.53
2023-05-18T07:30:37.443Z,36.52
2023-05-18T07:31:37.475Z,36.52
2023-05-18T07:32:37.467Z,36.52
2023-05-18T07:33:39.154Z,36.53
2023-05-18T07:34:37.446Z,36.51
2023-05-18T07:35:37.437Z,36.52
2023-05-18T07:36:37.445Z,36.54
2023-05-18T07:37:37.427Z,36.51
2023-05-18T07:38:37.418Z,36.51
2023-05-18T07:39:37.436Z,36.47
2023-05-18T07:40:37.415Z,36.48
2023-05-18T07:41:37.386Z,36.46
2023-05-18T07:42:37.411Z,36.51
2023-05-18T07:43:37.381Z,36.46
2023-05-18T07:44:37.390Z,36.45
2023-05-18T07:45:37.378Z,36.43
2023-05-18T07:46:37.379Z,36.46
2023-05-18T07:47:37.431Z,36.44
2023-05-18T07:48:38.477Z,36.47
2023-05-18T07:49:37.347Z,36.47
2023-05-18T07:50:37.354Z,36.45
2023-05-18T07:51:37.326Z,36.44
2023-05-18T07:52:37.326Z,36.43
2023-05-18T07:53:37.304Z,36.45
2023-05-18T07:54:37.337Z,36.47
2023-05-18T07:55:37.305Z,36.45
2023-05-18T07:56:37.300Z,36.46
2023-05-18T07:57:37.276Z,36.45
2023-05-18T07:58:37.318Z,36.46
2023-05-18T07:59:37.265Z,36.47
2023-05-18T08:00:37.266Z,36.47
2023-05-18T08:01:37.343Z,36.46
2023-05-18T08:02:37.406Z,36.46
2023-05-18T08:03:37.307Z,36.45
2023-05-18T08:04:37.231Z,36.46
2023-05-18T08:05:37.255Z,36.45
2023-05-18T08:06:37.247Z,36.45
2023-05-18T08:07:37.214Z,36.44
2023-05-18T08:08:37.217Z,36.45
2023-05-18T08:09:37.219Z,36.48
2023-05-18T08:10:37.219Z,36.43
2023-05-18T08:11:37.187Z,36.46
2023-05-18T08:12:37.254Z,36.43
2023-05-18T08:13:37.183Z,36.41
2023-05-18T08:14:37.184Z,36.45
2023-05-18T08:15:37.187Z,36.44
2023-05-18T08:16:37.309Z,36.44
2023-05-18T08:17:37.181Z,36.44
2023-05-18T08:18:37.174Z,36.43
2023-05-18T08:19:37.691Z,36.44
2023-05-18T08:20:37.165Z,36.45
2023-05-18T08:21:37.119Z,36.43
2023-05-18T08:22:37.142Z,36.43
2023-05-18T08:23:37.117Z,36.42
2023-05-18T08:24:37.121Z,36.41
2023-05-18T08:25:37.106Z,36.40
2023-05-18T08:26:37.092Z,36.40
2023-05-18T08:27:37.097Z,36.41
2023-05-18T08:28:37.092Z,36.37
2023-05-18T08:29:37.083Z,36.36
2023-05-18T08:30:37.067Z,36.38
2023-05-18T08:31:37.093Z,36.38
2023-05-18T08:32:37.163Z,36.37
2023-05-18T08:33:37.060Z,36.39
2023-05-18T08:34:37.035Z,36.39
2023-05-18T08:35:37.051Z,36.40
2023-05-18T08:36:37.028Z,36.37
2023-05-18T08:37:37.012Z,36.39
2023-05-18T08:38:37.006Z,36.41
2023-05-18T08:39:37.014Z,36.39
2023-05-18T08:40:36.996Z,36.38
2023-05-18T08:41:36.982Z,36.39
2023-05-18T08:42:49.487Z,36.38
2023-05-18T08:43:37.976Z,36.39
2023-05-18T08:44:36.970Z,36.38
2023-05-18T08:45:37.012Z,36.39
2023-05-18T08:46:36.951Z,36.38
2023-05-18T08:47:37.040Z,36.39
2023-05-18T08:48:36.978Z,36.37
2023-05-18T08:49:36.928Z,36.36
2023-05-18T08:50:36.926Z,36.34
2023-05-18T08:51:36.929Z,36.35
2023-05-18T08:52:36.932Z,36.35
2023-05-18T08:53:36.904Z,36.34
2023-05-18T08:54:36.896Z,36.35
2023-05-18T08:55:36.933Z,36.35
2023-05-18T08:56:36.897Z,36.36
2023-05-18T08:57:36.874Z,36.35
2023-05-18T08:58:36.870Z,36.34
2023-05-18T08:59:36.888Z,36.32
2023-05-18T09:00:36.971Z,36.33
2023-05-18T09:01:36.932Z,36.35
2023-05-18T09:02:36.854Z,36.34
2023-05-18T09:03:36.842Z,36.35
2023-05-18T09:04:36.854Z,36.35
2023-05-18T09:05:36.831Z,36.33
2023-05-18T09:06:36.818Z,36.35
2023-05-18T09:07:36.816Z,36.35
2023-05-18T09:08:36.796Z,36.35
2023-05-18T09:09:36.791Z,36.34
2023-05-18T09:10:36.784Z,36.35
2023-05-18T09:11:36.802Z,36.34
2023-05-18T09:12:36.808Z,36.33
2023-05-18T09:13:36.776Z,36.31
2023-05-18T09:14:36.760Z,36.31
2023-05-18T09:15:36.785Z,36.31
2023-05-18T09:16:36.780Z,36.33
2023-05-18T09:17:36.783Z,36.32
2023-05-18T09:18:36.758Z,36.31
2023-05-18T09:19:36.732Z,36.31
2023-05-18T09:20:36.745Z,36.30
2023-05-18T09:21:36.707Z,36.31
2023-05-18T09:22:36.699Z,36.31
2023-05-18T09:23:36.718Z,36.28
2023-05-18T09:24:36.692Z,36.31
2023-05-18T09:25:36.684Z,36.31
2023-05-18T09:26:36.695Z,36.30
2023-05-18T09:27:36.717Z,36.32
2023-05-18T09:28:36.663Z,36.32
2023-05-18T09:29:36.663Z,36.31
2023-05-18T09:30:36.663Z,36.32
2023-05-18T09:31:36.724Z,36.34
2023-05-18T09:32:36.679Z,36.35
2023-05-18T09:33:36.787Z,36.33
2023-05-18T09:34:36.670Z,36.35
2023-05-18T09:35:37.710Z,36.35
2023-05-18T09:36:36.614Z,36.35
2023-05-18T09:37:36.697Z,36.29
2023-05-18T09:38:36.603Z,36.31
2023-05-18T09:39:36.617Z,36.30
2023-05-18T09:40:36.626Z,36.28
2023-05-18T09:41:36.577Z,36.31
2023-05-18T09:42:36.605Z,36.31
2023-05-18T09:43:36.598Z,36.30
2023-05-18T09:44:36.579Z,36.31
2023-05-18T09:45:36.604Z,36.30
2023-05-18T09:46:36.672Z,36.32
2023-05-18T09:47:36.638Z,36.30
2023-05-18T09:48:36.576Z,36.29
2023-05-18T09:49:36.594Z,36.30
2023-05-18T09:50:36.612Z,36.29
2023-05-18T09:51:36.593Z,36.28
2023-05-18T09:52:36.584Z,36.26
2023-05-18T09:53:36.611Z,36.26
2023-05-18T09:54:36.635Z,36.28
2023-05-18T09:55:36.658Z,36.24
2023-05-18T09:56:36.633Z,36.26
2023-05-18T09:57:36.655Z,36.23
2023-05-18T09:58:36.646Z,36.23
2023-05-18T09:59:36.702Z,36.24
2023-05-18T10:00:36.698Z,36.24
2023-05-18T10:01:36.660Z,36.26
2023-05-18T10:02:36.710Z,36.25
2023-05-18T10:03:36.655Z,36.24
2023-05-18T10:04:36.760Z,36.25
2023-05-18T10:05:36.901Z,36.25
2023-05-18T10:06:36.705Z,36.24
2023-05-18T10:07:36.736Z,36.24
2023-05-18T10:08:36.726Z,36.24
2023-05-18T10:09:36.732Z,36.24
2023-05-18T10:10:36.727Z,36.23
2023-05-18T10:11:36.731Z,36.22
2023-05-18T10:12:36.748Z,36.23
2023-05-18T10:13:36.790Z,36.22
2023-05-18T10:14:36.794Z,36.20
2023-05-18T10:15:36.764Z,36.22
2023-05-18T10:16:36.828Z,36.20
2023-05-18T10:17:36.925Z,36.22
2023-05-18T10:18:36.889Z,36.21
2023-05-18T10:19:36.842Z,36.19
2023-05-18T10:20:36.911Z,36.19
2023-05-18T10:21:36.864Z,36.15
2023-05-18T10:22:36.867Z,36.16
2023-05-18T10:23:36.917Z,36.14
2023-05-18T10:24:36.921Z,36.14
2023-05-18T10:25:36.939Z,36.15
2023-05-18T10:26:36.929Z,36.16
2023-05-18T10:27:36.966Z,36.16
2023-05-18T10:28:36.941Z,36.16
2023-05-18T10:29:36.966Z,36.14
2023-05-18T10:30:37.007Z,36.16
2023-05-18T10:31:36.990Z,36.14
2023-05-18T10:32:37.080Z,36.15
2023-05-18T10:33:37.102Z,36.14
2023-05-18T10:34:37.027Z,36.15
2023-05-18T10:35:37.028Z,36.16
2023-05-18T10:36:37.110Z,36.15
2023-05-18T10:37:37.061Z,36.14
2023-05-18T10:38:37.090Z,36.11
2023-05-18T10:39:37.157Z,36.12
2023-05-18T10:40:37.106Z,36.13
2023-05-18T10:41:37.092Z,36.13
2023-05-18T10:42:37.106Z,36.15
2023-05-18T10:43:37.135Z,36.14
2023-05-18T10:44:37.136Z,36.13
2023-05-18T10:45:37.268Z,36.11
2023-05-18T10:46:37.252Z,36.10
2023-05-18T10:47:37.361Z,36.07
2023-05-18T10:48:37.276Z,36.10
2023-05-18T10:49:37.198Z,36.05
2023-05-18T10:50:37.222Z,36.04
2023-05-18T10:51:37.231Z,36.05
2023-05-18T10:52:37.258Z,36.06
2023-05-18T10:53:37.255Z,36.04
2023-05-18T10:54:37.273Z,36.06
2023-05-18T10:55:37.324Z,36.08
2023-05-18T10:56:37.328Z,36.08
2023-05-18T10:57:37.345Z,36.05
2023-05-18T10:58:37.370Z,36.05
2023-05-18T10:59:37.371Z,36.06
2023-05-18T11:00:37.413Z,36.05
2023-05-18T11:01:37.432Z,36.06
2023-05-18T11:02:37.509Z,36.05
2023-05-18T11:03:37.493Z,36.04
2023-05-18T11:04:37.573Z,36.04
2023-05-18T11:05:37.550Z,36.04
2023-05-18T11:06:37.613Z,36.07
2023-05-18T11:07:37.702Z,36.07
2023-05-18T11:08:37.768Z,36.06
2023-05-18T11:09:37.723Z,36.05
2023-05-18T11:10:37.777Z,36.03
2023-05-18T11:11:37.791Z,36.02
2023-05-18T11:12:37.827Z,36.03
2023-05-18T11:13:37.849Z,36.03
2023-05-18T11:14:37.875Z,36.02
2023-05-18T11:15:37.908Z,36.04
2023-05-18T11:16:37.954Z,36.03
2023-05-18T11:17:37.987Z,36.05
2023-05-18T11:18:38.014Z,36.10
2023-05-18T11:19:37.978Z,36.07
2023-05-18T11:20:38.015Z,36.11
2023-05-18T11:21:38.016Z,36.09
2023-05-18T11:22:38.044Z,36.10
2023-05-18T11:23:38.079Z,36.10
2023-05-18T11:24:38.111Z,36.08
2023-05-18T11:25:38.103Z,36.08
2023-05-18T11:26:38.127Z,36.08
2023-05-18T11:27:38.164Z,36.05
2023-05-18T11:28:38.178Z,36.06
2023-05-18T11:29:38.271Z,36.05
2023-05-18T11:30:38.217Z,36.06
2023-05-18T11:31:38.245Z,36.05
2023-05-18T11:32:38.365Z,36.06
2023-05-18T11:33:38.289Z,36.07
2023-05-18T11:34:39.675Z,36.04
2023-05-18T11:35:38.344Z,36.05
2023-05-18T11:36:38.367Z,36.04
2023-05-18T11:37:38.454Z,36.05
2023-05-18T11:38:38.371Z,36.04
2023-05-18T11:39:47.902Z,36.06
2023-05-18T11:40:39.397Z,36.07
2023-05-18T11:41:38.372Z,36.05
2023-05-18T11:42:38.412Z,36.02
2023-05-18T11:43:38.365Z,36.04
2023-05-18T11:44:38.376Z,36.05
2023-05-18T11:45:38.356Z,36.05
2023-05-18T11:46:38.333Z,36.05
2023-05-18T11:47:38.367Z,36.02
2023-05-18T11:48:38.413Z,36.05
2023-05-18T11:49:38.330Z,36.05
2023-05-18T11:50:38.327Z,36.06
2023-05-18T11:51:38.337Z,36.04
2023-05-18T11:52:38.297Z,36.04
2023-05-18T11:53:38.312Z,36.05
2023-05-18T11:54:38.314Z,36.04
2023-05-18T11:55:38.350Z,36.00
2023-05-18T11:56:38.471Z,36.00
2023-05-18T11:57:38.399Z,35.97
2023-05-18T11:58:38.430Z,35.99
2023-05-18T11:59:38.481Z,35.97
2023-05-18T12:00:38.516Z,35.97
2023-05-18T12:01:38.520Z,35.95
2023-05-18T12:02:38.631Z,35.97
2023-05-18T12:03:38.715Z,35.95
2023-05-18T12:04:39.336Z,35.94
2023-05-18T12:05:38.686Z,35.94
2023-05-18T12:06:38.725Z,35.93
2023-05-18T12:07:38.754Z,35.94
2023-05-18T12:08:38.776Z,35.93
2023-05-18T12:09:38.828Z,35.95
2023-05-18T12:10:38.874Z,35.94
2023-05-18T12:11:38.927Z,35.93
2023-05-18T12:12:38.998Z,35.94
2023-05-18T12:13:38.980Z,35.93
2023-05-18T12:14:38.977Z,35.95
2023-05-18T12:15:38.977Z,35.93
2023-05-18T12:16:39.051Z,35.94
2023-05-18T12:17:39.080Z,35.94
2023-05-18T12:18:39.092Z,35.94
2023-05-18T12:19:39.057Z,35.92
2023-05-18T12:20:39.063Z,35.92
2023-05-18T12:21:39.059Z,35.92
2023-05-18T12:22:39.075Z,35.95
2023-05-18T12:23:39.089Z,35.93
2023-05-18T12:24:39.131Z,35.92
2023-05-18T12:25:39.126Z,35.95
2023-05-18T12:26:39.129Z,35.97
2023-05-18T12:27:39.139Z,35.97
2023-05-18T12:28:39.196Z,35.95
2023-05-18T12:29:39.208Z,35.93
2023-05-18T12:30:39.289Z,35.93
2023-05-18T12:31:39.296Z,35.92
2023-05-18T12:32:39.331Z,35.94
2023-05-18T12:33:39.341Z,35.94
2023-05-18T12:34:39.415Z,35.93
2023-05-18T12:35:39.432Z,35.93
2023-05-18T12:36:39.464Z,35.91
2023-05-18T12:38:39.507Z,35.95
2023-05-18T12:39:39.486Z,35.93
2023-05-18T12:40:39.495Z,35.92
2023-05-18T12:41:39.491Z,35.93
2023-05-18T12:42:39.477Z,35.93
2023-05-18T12:43:39.469Z,35.92
2023-05-18T12:44:39.481Z,35.93
2023-05-18T12:45:39.460Z,35.94
2023-05-18T12:46:39.505Z,35.93
2023-05-18T12:47:39.484Z,35.93
2023-05-18T12:48:39.464Z,35.93
2023-05-18T12:49:39.479Z,35.95
2023-05-18T12:50:39.445Z,35.94
2023-05-18T12:51:39.424Z,35.92
2023-05-18T12:52:39.452Z,35.92
2023-05-18T12:53:39.499Z,35.92